createdAt,value
2022-12-17T00:01:07.169Z,70.15
2022-12-17T00:03:53.571Z,85.35
2022-12-17T00:06:44.965Z,78.95
2022-12-17T00:09:30.831Z,58.75
2022-12-17T00:12:16.736Z,56.80
2022-12-17T00:15:02.740Z,63.38
2022-12-17T00:17:49.337Z,43.03
2022-12-17T00:20:35.634Z,48.35
2022-12-17T00:23:23.040Z,50.30
2022-12-17T00:26:13.423Z,61.50
2022-12-17T00:28:59.779Z,59.47
2022-12-17T00:31:48.920Z,61.80
2022-12-17T00:34:34.692Z,53.72
2022-12-17T00:37:20.903Z,78.47
2022-12-17T00:40:07.213Z,89.65
2022-12-17T00:42:53.400Z,66.57
2022-12-17T00:45:42.196Z,77.13
2022-12-17T00:48:28.407Z,72.60
2022-12-17T00:51:14.354Z,59.78
2022-12-17T00:54:01.035Z,55.05
2022-12-17T00:56:47.069Z,37.97
2022-12-17T00:59:33.340Z,47.28
2022-12-17T01:02:20.045Z,36.58
2022-12-17T01:05:06.010Z,50.03
2022-12-17T01:07:53.125Z,29.13
2022-12-17T01:10:42.403Z,32.00
2022-12-17T01:13:32.482Z,27.70
2022-12-17T01:16:23.564Z,35.78
2022-12-17T01:19:10.941Z,32.53
2022-12-17T01:24:43.410Z,40.28
2022-12-17T01:27:29.907Z,47.35
2022-12-17T01:30:16.159Z,45.80
2022-12-17T01:33:01.969Z,41.15
2022-12-17T01:35:48.362Z,48.33
2022-12-17T01:38:36.650Z,38.28
2022-12-17T01:41:24.063Z,48.05
2022-12-17T01:44:10.287Z,42.13
2022-12-17T01:47:03.773Z,35.72
2022-12-17T01:49:49.820Z,29.80
2022-12-17T01:52:36.159Z,28.48
2022-12-17T01:55:24.195Z,44.63
2022-12-17T01:58:09.928Z,33.50
2022-12-17T02:00:55.733Z,34.70
2022-12-17T02:03:41.413Z,23.45
2022-12-17T02:06:33.840Z,19.25
2022-12-17T02:09:25.929Z,25.38
2022-12-17T02:12:20.820Z,31.48
2022-12-17T02:15:18.930Z,23.27
2022-12-17T02:18:12.109Z,24.40
2022-12-17T02:21:03.246Z,24.73
2022-12-17T02:24:13.662Z,24.52
2022-12-17T02:27:13.814Z,24.95
2022-12-17T02:30:07.379Z,15.75
2022-12-17T02:33:13.217Z,24.58
2022-12-17T02:36:20.844Z,20.25
2022-12-17T02:39:06.485Z,19.60
2022-12-17T02:42:05.412Z,22.67
2022-12-17T02:44:53.270Z,19.10
2022-12-17T02:47:54.481Z,20.83
2022-12-17T02:50:41.949Z,25.33
2022-12-17T02:53:28.540Z,23.13
2022-12-17T02:56:14.563Z,19.90
2022-12-17T02:59:01.532Z,23.08
2022-12-17T03:01:47.676Z,17.95
2022-12-17T03:04:33.633Z,24.95
2022-12-17T03:07:19.493Z,13.80
2022-12-17T03:10:06.404Z,17.25
2022-12-17T03:12:53.225Z,22.63
2022-12-17T03:15:39.091Z,25.38
2022-12-17T03:18:25.106Z,35.35
2022-12-17T03:21:12.516Z,26.55
2022-12-17T03:26:43.977Z,19.85
2022-12-17T03:29:29.969Z,18.05
2022-12-17T03:32:15.911Z,27.45
2022-12-17T03:35:02.053Z,19.98
2022-12-17T03:37:48.011Z,23.50
2022-12-17T03:40:34.084Z,15.68
2022-12-17T03:43:27.116Z,10.27
2022-12-17T03:46:13.611Z,23.35
2022-12-17T03:49:19.329Z,25.20
2022-12-17T03:52:05.149Z,24.13
2022-12-17T03:54:51.185Z,24.00
2022-12-17T03:57:37.278Z,21.50
2022-12-17T04:00:24.877Z,29.58
2022-12-17T04:03:10.883Z,20.23
2022-12-17T04:05:56.712Z,27.98
2022-12-17T04:08:42.778Z,19.50
2022-12-17T04:11:28.937Z,19.08
2022-12-17T04:14:15.070Z,16.08
2022-12-17T04:17:01.121Z,35.50
2022-12-17T04:19:47.116Z,25.65
2022-12-17T04:22:33.096Z,24.42
2022-12-17T04:25:19.037Z,25.58
2022-12-17T04:28:05.067Z,22.05
2022-12-17T04:30:51.015Z,18.23
2022-12-17T04:33:37.269Z,20.98
2022-12-17T04:36:23.330Z,13.60
2022-12-17T04:39:09.344Z,13.48
2022-12-17T04:41:55.439Z,14.55
2022-12-17T04:44:41.439Z,8.25
2022-12-17T04:47:27.953Z,10.13
2022-12-17T04:50:13.509Z,7.22
2022-12-17T04:52:59.443Z,18.95
2022-12-17T04:55:45.461Z,15.23
2022-12-17T04:58:31.428Z,7.95
2022-12-17T05:01:37.545Z,17.05
2022-12-17T05:04:23.489Z,8.77
2022-12-17T05:07:09.537Z,10.02
2022-12-17T05:09:55.456Z,10.10
2022-12-17T05:12:41.260Z,10.70
2022-12-17T05:15:27.496Z,10.57
2022-12-17T05:18:13.445Z,16.33
2022-12-17T05:20:59.384Z,13.48
2022-12-17T05:23:45.409Z,14.48
2022-12-17T05:26:41.701Z,11.02
2022-12-17T05:29:28.155Z,12.43
2022-12-17T05:32:14.147Z,16.35
2022-12-17T05:34:59.886Z,11.43
2022-12-17T05:37:46.177Z,12.55
2022-12-17T05:40:32.162Z,10.52
2022-12-17T05:43:21.261Z,21.17
2022-12-17T05:46:08.066Z,15.45
2022-12-17T05:48:54.855Z,7.43
2022-12-17T05:51:41.009Z,24.40
2022-12-17T05:54:27.099Z,14.13
2022-12-17T05:57:13.622Z,12.77
2022-12-17T06:00:00.073Z,19.35
2022-12-17T06:02:45.875Z,14.23
2022-12-17T06:05:32.694Z,7.45
2022-12-17T06:08:26.412Z,11.85
2022-12-17T06:11:12.926Z,11.43
2022-12-17T06:13:58.812Z,17.47
2022-12-17T06:17:04.564Z,8.52
2022-12-17T06:19:50.779Z,10.45
2022-12-17T06:22:36.740Z,16.00
2022-12-17T06:25:22.611Z,17.75
2022-12-17T06:28:08.398Z,19.35
2022-12-17T06:30:54.209Z,12.30
2022-12-17T06:33:40.233Z,13.95
2022-12-17T06:36:26.540Z,18.60
2022-12-17T06:39:12.260Z,30.90
2022-12-17T06:42:04.203Z,9.45
2022-12-17T06:44:51.146Z,13.65
2022-12-17T06:47:37.187Z,15.45
2022-12-17T06:50:24.022Z,12.15
2022-12-17T06:53:21.309Z,16.95
2022-12-17T06:56:07.034Z,14.02
2022-12-17T06:58:53.111Z,21.83
2022-12-17T07:01:39.244Z,23.65
2022-12-17T07:04:25.366Z,5.40
2022-12-17T07:09:58.324Z,10.82
2022-12-17T07:12:44.248Z,12.63
2022-12-17T07:15:30.504Z,7.68
2022-12-17T07:18:21.805Z,14.32
2022-12-17T07:21:10.729Z,14.25
2022-12-17T07:23:56.691Z,9.45
2022-12-17T07:26:42.760Z,18.73
2022-12-17T07:29:42.603Z,8.65
2022-12-17T07:32:29.245Z,9.52
2022-12-17T07:35:15.012Z,24.33
2022-12-17T07:38:01.106Z,24.10
2022-12-17T07:40:46.993Z,16.42
2022-12-17T07:43:33.757Z,21.13
2022-12-17T07:46:19.693Z,15.93
2022-12-17T07:49:05.710Z,18.90
2022-12-17T07:51:51.631Z,18.02
2022-12-17T07:54:37.728Z,15.88
2022-12-17T07:57:23.714Z,13.93
2022-12-17T08:00:09.731Z,8.07
2022-12-17T08:02:55.600Z,8.05
2022-12-17T08:05:41.485Z,10.75
2022-12-17T08:08:31.759Z,10.30
2022-12-17T08:11:17.948Z,7.60
2022-12-17T08:14:03.787Z,13.95
2022-12-17T08:16:49.904Z,8.57
2022-12-17T08:19:36.197Z,16.80
2022-12-17T08:22:22.014Z,8.68
2022-12-17T08:25:08.055Z,12.85
2022-12-17T08:27:54.021Z,23.38
2022-12-17T08:30:39.740Z,21.77
2022-12-17T08:33:25.480Z,28.40
2022-12-17T08:36:15.624Z,43.33
2022-12-17T08:39:01.527Z,15.02
2022-12-17T08:41:52.654Z,14.70
2022-12-17T08:44:40.248Z,6.20
2022-12-17T08:47:26.214Z,10.57
2022-12-17T08:50:11.888Z,13.32
2022-12-17T08:52:58.002Z,19.75
2022-12-17T08:55:43.887Z,7.15
2022-12-17T08:58:29.844Z,22.33
2022-12-17T09:01:18.890Z,9.02
2022-12-17T09:04:05.983Z,10.27
2022-12-17T09:06:51.646Z,16.33
2022-12-17T09:09:48.390Z,9.25
2022-12-17T09:12:34.500Z,26.13
2022-12-17T09:15:20.655Z,23.15
2022-12-17T09:18:06.721Z,17.88
2022-12-17T09:20:52.767Z,13.23
2022-12-17T09:23:38.829Z,12.32
2022-12-17T09:26:26.029Z,12.93
2022-12-17T09:29:11.997Z,14.43
2022-12-17T09:31:57.734Z,11.20
2022-12-17T09:34:43.525Z,8.60
2022-12-17T09:37:29.480Z,21.90
2022-12-17T09:40:15.538Z,17.33
2022-12-17T09:43:13.228Z,9.73
2022-12-17T09:46:07.633Z,10.18
2022-12-17T09:49:14.316Z,13.15
2022-12-17T09:52:00.666Z,14.50
2022-12-17T09:55:08.415Z,18.08
2022-12-17T09:57:55.800Z,12.00
2022-12-17T10:00:45.592Z,13.65
2022-12-17T10:03:37.655Z,15.07
2022-12-17T10:06:28.997Z,9.77
2022-12-17T10:09:19.533Z,13.38
2022-12-17T10:12:05.772Z,17.00
2022-12-17T10:14:51.996Z,13.75
2022-12-17T10:17:42.528Z,12.32
2022-12-17T10:21:02.421Z,10.52
2022-12-17T10:23:50.544Z,10.95
2022-12-17T10:26:39.685Z,13.57
2022-12-17T10:29:31.753Z,10.10
2022-12-17T10:32:26.959Z,11.77
2022-12-17T10:35:13.153Z,13.45
2022-12-17T10:37:59.116Z,12.10
2022-12-17T10:40:48.154Z,9.77
2022-12-17T10:43:51.741Z,12.52
2022-12-17T10:46:46.092Z,8.35
2022-12-17T10:49:37.788Z,8.50
2022-12-17T10:52:45.812Z,8.55
2022-12-17T10:55:49.785Z,7.80
2022-12-17T10:58:48.087Z,6.97
2022-12-17T11:01:44.944Z,14.85
2022-12-17T11:04:56.726Z,19.75
2022-12-17T11:07:55.781Z,16.98
2022-12-17T11:10:44.665Z,11.00
2022-12-17T11:13:53.530Z,10.23
2022-12-17T11:16:51.846Z,15.43
2022-12-17T11:20:04.539Z,16.08
2022-12-17T11:23:06.808Z,16.45
2022-12-17T11:26:21.450Z,7.32
2022-12-17T11:29:07.338Z,13.73
2022-12-17T11:32:25.337Z,14.68
2022-12-17T11:35:58.630Z,9.63
2022-12-17T11:38:56.927Z,10.85
2022-12-17T11:42:36.750Z,9.38
2022-12-17T11:45:37.669Z,17.55
2022-12-17T11:48:35.465Z,10.38
2022-12-17T11:51:27.652Z,13.23
2022-12-17T11:54:19.238Z,11.23
2022-12-17T11:57:10.927Z,13.73
2022-12-17T12:00:10.210Z,9.75
2022-12-17T12:03:04.127Z,3.78
2022-12-17T12:06:13.605Z,15.80
2022-12-17T12:09:29.360Z,14.82
2022-12-17T12:12:22.624Z,6.63
2022-12-17T12:15:26.900Z,9.18
2022-12-17T12:18:45.453Z,9.88
2022-12-17T12:21:53.992Z,14.50
2022-12-17T12:25:09.201Z,6.63
2022-12-17T12:28:32.263Z,8.70
2022-12-17T12:31:58.525Z,7.57
2022-12-17T12:35:09.661Z,13.45
2022-12-17T12:37:55.681Z,5.35
2022-12-17T12:40:50.630Z,16.45
2022-12-17T12:44:07.237Z,8.13
2022-12-17T12:47:11.286Z,20.13
2022-12-17T12:50:14.450Z,13.25
2022-12-17T12:53:02.535Z,6.10
2022-12-17T12:55:59.855Z,7.43
2022-12-17T12:58:50.718Z,16.47
2022-12-17T13:01:37.963Z,16.85
2022-12-17T13:04:52.232Z,24.15
2022-12-17T13:07:27.755Z,15.30
2022-12-17T13:10:00.292Z,12.35
2022-12-17T13:12:55.635Z,15.65
2022-12-17T13:15:48.004Z,15.82
2022-12-17T13:18:29.978Z,8.73
2022-12-17T13:21:03.793Z,10.05
2022-12-17T13:23:35.855Z,11.90
2022-12-17T13:26:28.496Z,14.45
2022-12-17T13:28:56.095Z,12.38
2022-12-17T13:31:28.151Z,20.33
2022-12-17T13:34:16.547Z,20.48
2022-12-17T13:37:07.031Z,14.50
2022-12-17T13:40:00.475Z,19.90
2022-12-17T13:42:32.323Z,15.30
2022-12-17T13:44:59.836Z,16.30
2022-12-17T13:47:35.076Z,22.83
2022-12-17T13:50:33.760Z,9.23
2022-12-17T13:53:13.156Z,13.25
2022-12-17T13:55:40.734Z,15.50
2022-12-17T13:58:21.715Z,18.25
2022-12-17T14:00:49.099Z,13.88
2022-12-17T14:03:43.042Z,20.95
2022-12-17T14:06:11.703Z,18.10
2022-12-17T14:08:40.557Z,15.70
2022-12-17T14:11:26.520Z,21.85
2022-12-17T14:13:54.051Z,35.20
2022-12-17T14:16:22.301Z,22.65
2022-12-17T14:18:54.015Z,16.52
2022-12-17T14:21:26.597Z,18.70
2022-12-17T14:23:55.128Z,17.50
2022-12-17T14:26:22.611Z,14.23
2022-12-17T14:28:53.129Z,16.48
2022-12-17T14:31:28.836Z,11.98
2022-12-17T14:34:10.719Z,15.65
2022-12-17T14:36:43.741Z,20.13
2022-12-17T14:39:24.876Z,19.73
2022-12-17T14:42:11.766Z,19.80
2022-12-17T14:44:50.191Z,19.80
2022-12-17T14:47:24.104Z,21.33
2022-12-17T14:50:04.295Z,15.93
2022-12-17T14:52:49.210Z,22.38
2022-12-17T14:55:28.225Z,24.05
2022-12-17T14:58:13.093Z,19.75
2022-12-17T15:00:41.611Z,23.70
2022-12-17T15:03:20.004Z,25.58
2022-12-17T15:06:09.491Z,17.25
2022-12-17T15:08:40.823Z,20.10
2022-12-17T15:11:10.295Z,16.70
2022-12-17T15:13:37.553Z,16.77
2022-12-17T15:16:05.249Z,21.20
2022-12-17T15:18:32.774Z,17.52
2022-12-17T15:21:01.364Z,21.75
2022-12-17T15:23:29.163Z,26.38
2022-12-17T15:25:56.534Z,16.42
2022-12-17T15:28:24.005Z,21.00
2022-12-17T15:30:51.434Z,15.00
2022-12-17T15:33:18.775Z,20.85
2022-12-17T15:35:46.067Z,20.42
2022-12-17T15:38:13.397Z,14.05
2022-12-17T15:40:41.069Z,14.68
2022-12-17T15:43:12.095Z,26.63
2022-12-17T15:45:41.563Z,18.95
2022-12-17T15:48:09.664Z,17.77
2022-12-17T15:50:37.319Z,20.63
2022-12-17T15:53:04.850Z,20.83
2022-12-17T15:55:32.234Z,23.55
2022-12-17T15:57:59.575Z,21.45
2022-12-17T16:00:26.920Z,20.38
2022-12-17T16:02:54.655Z,22.92
2022-12-17T16:05:22.173Z,21.65
2022-12-17T16:07:50.464Z,31.02
2022-12-17T16:10:18.112Z,29.50
2022-12-17T16:12:45.400Z,25.10
2022-12-17T16:15:14.524Z,29.20
2022-12-17T16:17:41.821Z,23.45
2022-12-17T16:20:09.700Z,27.27
2022-12-17T16:22:37.419Z,18.90
2022-12-17T16:25:05.285Z,23.23
2022-12-17T16:27:32.712Z,22.15
2022-12-17T16:30:00.017Z,26.85
2022-12-17T16:32:31.496Z,14.27
2022-12-17T16:35:01.923Z,20.00
2022-12-17T16:37:29.176Z,26.35
2022-12-17T16:39:59.927Z,20.63
2022-12-17T16:42:27.940Z,23.45
2022-12-17T16:44:55.255Z,31.40
2022-12-17T16:47:22.627Z,16.40
2022-12-17T16:49:52.939Z,22.67
2022-12-17T16:52:20.224Z,20.23
2022-12-17T16:54:48.444Z,22.92
2022-12-17T16:57:15.741Z,15.88
2022-12-17T16:59:43.101Z,23.25
2022-12-17T17:02:15.610Z,21.05
2022-12-17T17:04:43.100Z,22.15
2022-12-17T17:07:10.399Z,30.40
2022-12-17T17:09:38.299Z,26.30
2022-12-17T17:12:07.490Z,22.65
2022-12-17T17:14:34.875Z,19.70
2022-12-17T17:17:02.109Z,21.75
2022-12-17T17:19:29.311Z,20.63
2022-12-17T17:21:56.620Z,21.60
2022-12-17T17:24:25.897Z,14.10
2022-12-17T17:26:54.227Z,15.75
2022-12-17T17:29:22.252Z,24.13
2022-12-17T17:34:36.942Z,21.88
2022-12-17T17:37:04.192Z,25.05
2022-12-17T17:39:34.459Z,19.95
2022-12-17T17:42:01.940Z,21.25
2022-12-17T17:44:29.196Z,19.90
2022-12-17T17:46:56.529Z,24.00
2022-12-17T17:49:23.912Z,22.27
2022-12-17T17:54:39.747Z,14.75
2022-12-17T17:57:07.920Z,23.10
2022-12-17T17:59:35.244Z,26.23
2022-12-17T18:02:03.460Z,24.10
2022-12-17T18:04:31.900Z,25.08
2022-12-17T18:09:46.585Z,23.00
2022-12-17T18:12:32.605Z,28.45
2022-12-17T18:15:17.488Z,25.05
2022-12-17T18:17:49.394Z,26.83
2022-12-17T18:20:17.067Z,17.52
2022-12-17T18:22:45.962Z,22.25
2022-12-17T18:25:13.929Z,26.63
2022-12-17T18:27:41.209Z,28.15
2022-12-17T18:30:09.485Z,24.02
2022-12-17T18:32:36.768Z,26.63
2022-12-17T18:35:04.220Z,18.52
2022-12-17T18:37:31.468Z,23.35
2022-12-17T18:39:58.736Z,19.40
2022-12-17T18:42:44.713Z,21.23
2022-12-17T18:45:11.924Z,27.65
2022-12-17T18:47:39.143Z,23.40
2022-12-17T18:50:06.789Z,18.73
2022-12-17T18:52:34.038Z,21.63
2022-12-17T18:55:01.225Z,18.20
2022-12-17T18:57:28.477Z,25.40
2022-12-17T18:59:56.719Z,26.50
2022-12-17T19:02:24.094Z,30.17
2022-12-17T19:04:51.915Z,24.00
2022-12-17T19:07:19.047Z,30.52
2022-12-17T19:09:46.342Z,33.83
2022-12-17T19:12:13.604Z,28.67
2022-12-17T19:14:41.008Z,25.10
2022-12-17T19:17:08.250Z,29.48
2022-12-17T19:19:35.540Z,26.42
2022-12-17T19:22:03.462Z,26.38
2022-12-17T19:24:30.843Z,31.45
2022-12-17T19:26:58.198Z,33.63
2022-12-17T19:29:25.661Z,32.67
2022-12-17T19:31:52.998Z,31.73
2022-12-17T19:34:20.392Z,31.10
2022-12-17T19:36:48.242Z,29.00
2022-12-17T19:39:19.007Z,33.67
2022-12-17T19:41:46.981Z,27.83
2022-12-17T19:44:16.713Z,30.50
2022-12-17T19:46:44.762Z,27.38
2022-12-17T19:49:16.653Z,39.53
2022-12-17T19:51:44.771Z,39.78
2022-12-17T19:54:14.734Z,38.85
2022-12-17T19:56:43.302Z,38.45
2022-12-17T19:59:12.108Z,43.65
2022-12-17T20:01:48.004Z,37.72
2022-12-17T20:04:16.624Z,51.42
2022-12-17T20:06:44.810Z,43.20
2022-12-17T20:09:12.823Z,48.35
2022-12-17T20:11:40.605Z,46.42
2022-12-17T20:14:16.973Z,51.17
2022-12-17T20:16:49.523Z,38.97
2022-12-17T20:19:20.122Z,43.30
2022-12-17T20:21:47.838Z,52.85
2022-12-17T20:24:16.550Z,52.67
2022-12-17T20:26:46.049Z,57.10
2022-12-17T20:29:13.395Z,58.88
2022-12-17T20:31:45.551Z,57.20
2022-12-17T20:34:18.719Z,58.00
2022-12-17T20:36:46.436Z,47.10
2022-12-17T20:39:13.915Z,57.78
2022-12-17T20:41:41.889Z,60.47
2022-12-17T20:44:13.710Z,59.05
2022-12-17T20:46:42.766Z,77.50
2022-12-17T20:49:12.137Z,62.33
2022-12-17T20:51:39.761Z,73.32
2022-12-17T20:54:08.400Z,78.22
2022-12-17T20:56:36.477Z,64.40
2022-12-17T20:59:06.686Z,65.45
2022-12-17T21:01:39.164Z,63.10
2022-12-17T21:04:07.542Z,67.93
2022-12-17T21:06:44.019Z,73.80
2022-12-17T21:09:12.266Z,74.25
2022-12-17T21:11:41.073Z,74.95
2022-12-17T21:14:14.292Z,65.72
2022-12-17T21:16:43.151Z,69.47
2022-12-17T21:19:14.048Z,64.13
2022-12-17T21:21:41.616Z,92.95
2022-12-17T21:24:10.104Z,68.85
2022-12-17T21:26:40.596Z,80.43
2022-12-17T21:29:09.448Z,70.97
2022-12-17T21:31:40.619Z,82.70
2022-12-17T21:34:12.182Z,73.70
2022-12-17T21:36:39.967Z,78.22
2022-12-17T21:39:09.756Z,71.05
2022-12-17T21:41:43.667Z,69.82
2022-12-17T21:44:15.398Z,76.00
2022-12-17T21:46:44.048Z,78.85
2022-12-17T21:49:17.300Z,75.97
2022-12-17T21:51:44.780Z,77.53
2022-12-17T21:54:17.294Z,79.97
2022-12-17T21:56:47.503Z,76.15
2022-12-17T21:59:14.746Z,84.15
2022-12-17T22:01:42.103Z,84.93
2022-12-17T22:04:09.475Z,93.90
2022-12-17T22:06:49.942Z,89.22
2022-12-17T22:09:38.742Z,95.88
2022-12-17T22:12:31.963Z,92.22
2022-12-17T22:14:59.433Z,80.47
2022-12-17T22:17:27.247Z,92.22
2022-12-17T22:19:54.509Z,84.00
2022-12-17T22:22:21.817Z,87.80
2022-12-17T22:24:49.219Z,78.80
2022-12-17T22:27:17.263Z,81.90
2022-12-17T22:30:03.074Z,82.60
2022-12-17T22:32:49.119Z,82.22
2022-12-17T22:36:43.235Z,92.30
2022-12-17T22:43:47.823Z,76.88
2022-12-17T22:44:36.240Z,79.43
2022-12-17T22:44:37.552Z,83.07
2022-12-17T22:46:29.169Z,92.55
2022-12-17T22:48:57.421Z,80.38
2022-12-17T22:51:39.225Z,82.43
2022-12-17T22:54:09.347Z,76.45
2022-12-17T22:57:00.516Z,87.20
2022-12-17T22:59:26.201Z,76.60
2022-12-17T23:01:53.625Z,93.18
2022-12-17T23:04:21.109Z,83.57
2022-12-17T23:06:48.588Z,96.35
2022-12-17T23:09:19.142Z,88.53
2022-12-17T23:11:48.488Z,91.22
2022-12-17T23:14:16.550Z,82.10
2022-12-17T23:16:44.637Z,88.35
2022-12-17T23:19:12.417Z,97.18
2022-12-17T23:21:39.957Z,98.10
2022-12-17T23:24:07.760Z,80.40
2022-12-17T23:26:36.604Z,80.72
2022-12-17T23:29:08.344Z,81.82
2022-12-17T23:31:38.647Z,79.18
2022-12-17T23:34:07.271Z,79.00
2022-12-17T23:36:35.701Z,85.22
2022-12-17T23:39:03.728Z,91.47
2022-12-17T23:41:31.360Z,79.32
2022-12-17T23:44:00.277Z,81.85
2022-12-17T23:46:30.140Z,89.90
2022-12-17T23:48:57.928Z,85.20
2022-12-17T23:51:29.326Z,82.43
2022-12-17T23:53:58.253Z,91.65
2022-12-17T23:56:27.866Z,76.00
2022-12-17T23:58:58.327Z,88.55
